createdAt,value
2019-04-14T11:18:49.330Z,19.90
2019-04-14T11:20:52.187Z,32.00
2019-04-14T11:20:52.354Z,28.70
2019-04-14T11:21:46.726Z,29.60
2019-04-14T11:22:46.720Z,28.40
2019-04-14T11:23:46.769Z,27.20
2019-04-14T11:24:47.508Z,27.80
2019-04-14T11:25:46.799Z,28.10
2019-04-14T11:26:46.712Z,28.40
2019-04-14T11:27:46.699Z,24.30
2019-04-14T11:28:46.730Z,22.40
2019-04-14T11:29:47.489Z,24.90
2019-04-14T11:30:46.674Z,27.60
2019-04-14T11:31:46.673Z,26.10
2019-04-14T11:32:46.714Z,24.70
2019-04-14T11:33:46.669Z,26.90
2019-04-14T11:34:46.680Z,26.80
2019-04-14T11:35:46.671Z,22.80
2019-04-14T11:36:47.490Z,19.20
2019-04-14T11:37:46.693Z,19.80
2019-04-14T11:38:46.639Z,21.90
2019-04-14T11:39:46.648Z,20.60
2019-04-14T11:40:46.630Z,20.50
2019-04-14T11:41:47.489Z,21.60
2019-04-14T11:42:52.327Z,20.70
2019-04-14T11:43:46.637Z,20.00
2019-04-14T11:44:46.610Z,20.50
2019-04-14T11:45:46.619Z,20.90
2019-04-14T11:46:46.608Z,19.80
2019-04-14T11:47:47.562Z,21.50
2019-04-14T11:50:29.356Z,20.00
2019-04-14T11:51:29.309Z,20.40
2019-04-14T11:52:29.336Z,18.70
2019-04-14T11:53:29.328Z,18.90
2019-04-14T11:54:29.295Z,19.30
2019-04-14T11:55:29.294Z,20.30
2019-04-14T11:56:29.335Z,18.50
2019-04-14T11:57:29.294Z,19.10
2019-04-14T11:58:29.481Z,18.90
2019-04-14T11:59:29.289Z,18.00
2019-04-14T12:00:29.276Z,18.10
2019-04-14T12:01:29.261Z,16.40
2019-04-14T12:02:29.284Z,16.90
2019-04-14T12:03:32.100Z,17.90
2019-04-14T12:04:29.268Z,17.20
2019-04-14T12:05:29.246Z,15.10
2019-04-14T12:06:29.249Z,16.60
2019-04-14T12:07:29.268Z,15.50
2019-04-14T12:08:29.227Z,14.40
2019-04-14T12:09:29.231Z,15.60
2019-04-14T12:10:29.268Z,14.70
2019-04-14T12:11:29.220Z,16.10
2019-04-14T12:12:29.213Z,16.80
2019-04-14T12:13:29.246Z,17.00
2019-04-14T12:14:29.261Z,17.00
2019-04-14T12:15:29.204Z,15.60
2019-04-14T12:16:29.197Z,16.50
2019-04-14T12:17:29.208Z,16.20
2019-04-14T12:18:29.211Z,16.50
2019-04-14T12:19:29.206Z,17.40
2019-04-14T12:20:29.183Z,16.70
2019-04-14T12:21:29.828Z,16.60
2019-04-14T12:22:29.174Z,16.10
2019-04-14T12:23:29.166Z,15.80
2019-04-14T12:24:29.200Z,13.30
2019-04-14T12:25:29.800Z,13.70
2019-04-14T12:26:29.146Z,14.90
2019-04-14T12:27:29.147Z,17.30
2019-04-14T12:28:29.171Z,14.10
2019-04-14T12:29:30.350Z,14.80
2019-04-14T12:30:29.176Z,15.50
2019-04-14T12:31:29.183Z,17.30
2019-04-14T12:32:29.119Z,16.30
2019-04-14T12:33:29.106Z,16.70
2019-04-14T12:34:29.172Z,16.50
2019-04-14T12:35:29.107Z,15.30
2019-04-14T12:36:29.098Z,15.90
2019-04-14T12:37:29.087Z,17.30
2019-04-14T12:38:29.124Z,16.20
2019-04-14T12:39:29.087Z,17.70
2019-04-14T12:40:29.079Z,17.80
2019-04-14T12:41:29.109Z,15.70
2019-04-14T12:42:29.067Z,15.90
2019-04-14T12:43:29.095Z,17.10
2019-04-14T12:44:29.102Z,16.90
2019-04-14T12:45:29.106Z,15.60
2019-04-14T12:46:29.041Z,16.50
2019-04-14T12:47:29.042Z,15.80
2019-04-14T12:48:29.039Z,15.20
2019-04-14T12:49:29.069Z,14.70
2019-04-14T12:50:29.059Z,14.80
2019-04-14T12:51:29.038Z,15.20
2019-04-14T12:52:29.012Z,13.90
2019-04-14T12:53:29.006Z,14.00
2019-04-14T12:54:29.024Z,13.20
2019-04-14T12:55:29.000Z,14.00
2019-04-14T12:56:29.030Z,13.40
2019-04-14T12:57:28.994Z,13.20
2019-04-14T12:58:28.991Z,13.80
2019-04-14T12:59:29.019Z,13.50
2019-04-14T13:00:28.973Z,15.60
2019-04-14T13:01:28.981Z,14.10
2019-04-14T13:02:28.969Z,12.90
2019-04-14T13:03:28.991Z,12.70
2019-04-14T13:04:28.994Z,12.30
2019-04-14T13:05:29.117Z,11.70
2019-04-14T13:06:28.955Z,12.10
2019-04-14T13:07:28.945Z,12.20
2019-04-14T13:08:28.970Z,11.30
2019-04-14T13:09:28.929Z,12.90
2019-04-14T13:10:28.967Z,11.30
2019-04-14T13:11:29.803Z,11.40
2019-04-14T13:12:28.925Z,11.60
2019-04-14T13:13:28.930Z,12.70
2019-04-14T13:14:28.936Z,11.50
2019-04-14T13:15:28.909Z,12.70
2019-04-14T13:16:28.940Z,12.10
2019-04-14T13:17:28.900Z,11.70
2019-04-14T13:18:28.902Z,11.50
2019-04-14T13:19:28.919Z,11.20
2019-04-14T13:20:28.908Z,11.00
2019-04-14T13:21:28.875Z,10.60
2019-04-14T13:22:34.033Z,10.70
2019-04-14T13:23:28.874Z,10.40
2019-04-14T13:24:28.870Z,11.10
2019-04-14T13:25:28.860Z,10.40
2019-04-14T13:26:28.887Z,10.60
2019-04-14T13:27:28.856Z,10.20
2019-04-14T13:28:28.843Z,10.30
2019-04-14T13:29:28.842Z,10.20
2019-04-14T13:30:28.864Z,9.40
2019-04-14T13:31:28.836Z,10.30
2019-04-14T13:32:35.781Z,10.40
2019-04-14T13:33:28.859Z,9.70
2019-04-14T13:34:28.819Z,10.80
2019-04-14T13:35:28.848Z,10.10
2019-04-14T13:36:28.818Z,10.40
2019-04-14T13:37:28.799Z,10.90
2019-04-14T13:38:28.818Z,10.10
2019-04-14T13:39:28.827Z,10.10
2019-04-14T13:40:28.788Z,10.20
2019-04-14T13:41:28.790Z,10.20
2019-04-14T13:42:28.786Z,10.50
2019-04-14T13:43:28.773Z,10.80
2019-04-14T13:44:28.801Z,10.70
2019-04-14T13:45:28.800Z,10.70
2019-04-14T13:46:28.757Z,10.50
2019-04-14T13:47:28.753Z,11.20
2019-04-14T13:48:28.751Z,10.90
2019-04-14T13:49:28.745Z,11.50
2019-04-14T13:50:28.774Z,10.50
2019-04-14T13:51:28.799Z,10.90
2019-04-14T13:52:30.926Z,10.80
2019-04-14T13:53:28.725Z,11.00
2019-04-14T13:54:28.751Z,11.20
2019-04-14T13:55:28.767Z,11.40
2019-04-14T13:56:28.710Z,10.60
2019-04-14T13:57:28.736Z,11.20
2019-04-14T13:58:28.724Z,10.60
2019-04-14T13:59:28.796Z,10.20
2019-04-14T14:00:28.726Z,10.60
2019-04-14T14:01:28.686Z,10.80
2019-04-14T14:02:28.678Z,10.90
2019-04-14T14:03:28.677Z,10.40
2019-04-14T14:04:28.686Z,10.00
2019-04-14T14:05:28.689Z,9.90
2019-04-14T14:06:28.698Z,10.20
2019-04-14T14:07:28.657Z,10.30
2019-04-14T14:08:28.655Z,10.90
2019-04-14T14:09:28.641Z,10.80
2019-04-14T14:10:28.677Z,10.90
2019-04-14T14:11:28.647Z,10.90
2019-04-14T14:12:28.659Z,10.70
2019-04-14T14:13:28.635Z,10.90
2019-04-14T14:14:28.667Z,11.10
2019-04-14T14:15:28.620Z,11.60
2019-04-14T14:16:28.615Z,11.10
2019-04-14T14:17:28.612Z,12.00
2019-04-14T14:18:28.609Z,11.50
2019-04-14T14:19:28.626Z,12.30
2019-04-14T14:20:28.632Z,11.60
2019-04-14T14:21:28.634Z,11.20
2019-04-14T14:22:28.590Z,11.30
2019-04-14T14:23:28.577Z,10.80
2019-04-14T14:24:28.579Z,11.30
2019-04-14T14:25:28.572Z,12.70
2019-04-14T14:26:28.599Z,12.00
2019-04-14T14:27:28.602Z,11.80
2019-04-14T14:28:28.563Z,12.40
2019-04-14T14:29:28.559Z,11.30
2019-04-14T14:30:28.581Z,11.60
2019-04-14T14:31:28.542Z,12.40
2019-04-14T14:32:28.553Z,12.00
2019-04-14T14:33:28.574Z,12.70
2019-04-14T14:34:28.524Z,12.50
2019-04-14T14:35:28.523Z,12.30
2019-04-14T14:36:28.523Z,12.50
2019-04-14T14:37:28.516Z,13.20
2019-04-14T14:38:28.514Z,12.80
2019-04-14T14:39:28.539Z,13.60
2019-04-14T14:40:28.530Z,13.40
2019-04-14T14:41:28.495Z,13.20
2019-04-14T14:42:28.492Z,13.90
2019-04-14T14:43:28.487Z,14.80
2019-04-14T14:44:28.477Z,14.20
2019-04-14T14:45:28.510Z,14.50
2019-04-14T14:46:28.513Z,13.90
2019-04-14T14:47:28.467Z,15.00
2019-04-14T14:48:28.458Z,15.30
2019-04-14T14:49:28.459Z,14.50
2019-04-14T14:50:28.456Z,17.80
2019-04-14T14:51:28.484Z,14.80
2019-04-14T14:52:28.444Z,16.40
2019-04-14T14:53:28.441Z,19.00
2019-04-14T14:54:28.448Z,17.00
2019-04-14T14:55:28.433Z,18.80
2019-04-14T14:56:28.423Z,17.80
2019-04-14T14:57:28.456Z,19.40
2019-04-14T14:58:28.413Z,18.70
2019-04-14T14:59:28.444Z,20.30
2019-04-14T15:00:28.406Z,21.20
2019-04-14T15:01:28.390Z,19.80
2019-04-14T15:02:28.403Z,20.80
2019-04-14T15:03:28.428Z,20.10
2019-04-14T15:04:28.382Z,18.50
2019-04-14T15:05:28.379Z,21.20
2019-04-14T15:06:28.426Z,22.30
2019-04-14T15:07:28.403Z,22.30
2019-04-14T15:08:28.367Z,20.10
2019-04-14T15:09:28.375Z,22.00
2019-04-14T15:10:28.364Z,25.50
2019-04-14T15:11:28.360Z,22.70
2019-04-14T15:12:28.398Z,24.00
2019-04-14T15:13:28.376Z,22.60
2019-04-14T15:14:28.342Z,22.50
2019-04-14T15:15:28.329Z,24.70
2019-04-14T15:16:28.321Z,25.10
2019-04-14T15:17:28.318Z,26.20
2019-04-14T15:18:28.357Z,28.10
2019-04-14T15:19:28.313Z,26.20
2019-04-14T15:20:29.295Z,27.00
2019-04-14T15:21:28.299Z,27.00
2019-04-14T15:22:28.321Z,20.90
2019-04-14T15:23:28.289Z,25.10
2019-04-14T15:24:28.321Z,27.50
2019-04-14T15:25:28.279Z,25.50
2019-04-14T15:26:28.272Z,25.30
2019-04-14T15:27:28.266Z,25.50
2019-04-14T15:28:28.269Z,26.20
2019-04-14T15:29:28.312Z,27.40
2019-04-14T15:30:28.255Z,28.50
2019-04-14T15:31:28.241Z,32.10
2019-04-14T15:32:28.275Z,26.70
2019-04-14T15:33:28.250Z,28.70
2019-04-14T15:34:28.233Z,31.50
2019-04-14T15:35:28.228Z,28.80
2019-04-14T15:36:28.234Z,30.90
2019-04-14T15:37:28.228Z,29.90
2019-04-14T15:38:28.242Z,32.10
2019-04-14T15:39:28.213Z,31.20
2019-04-14T15:40:28.240Z,30.70
2019-04-14T15:41:28.195Z,29.70
2019-04-14T15:42:28.188Z,30.80
2019-04-14T15:43:28.225Z,29.60
2019-04-14T15:44:28.217Z,30.10
2019-04-14T15:45:28.172Z,30.10
2019-04-14T15:46:28.201Z,33.10
2019-04-14T15:47:28.161Z,29.10
2019-04-14T15:48:28.192Z,30.90
2019-04-14T15:49:28.147Z,31.00
2019-04-14T15:50:28.153Z,31.60
2019-04-14T15:51:28.148Z,33.80
2019-04-14T15:52:28.137Z,31.70
2019-04-14T15:53:37.855Z,35.00
2019-04-14T15:54:28.130Z,34.40
2019-04-14T15:55:28.152Z,34.50
2019-04-14T15:56:28.114Z,37.60
2019-04-14T15:57:28.118Z,36.10
2019-04-14T15:58:28.170Z,30.70
2019-04-14T15:59:29.577Z,40.20
2019-04-14T16:00:28.099Z,38.50
2019-04-14T16:01:28.110Z,36.00
2019-04-14T16:02:28.093Z,40.20
2019-04-14T16:03:28.123Z,41.10
2019-04-14T16:04:28.081Z,38.20
2019-04-14T16:05:28.100Z,37.40
2019-04-14T16:06:28.068Z,41.70
2019-04-14T16:07:28.072Z,40.40
2019-04-14T16:08:28.088Z,37.10
2019-04-14T16:09:28.056Z,38.40
2019-04-14T16:10:28.101Z,42.40
2019-04-14T16:11:28.043Z,45.00
2019-04-14T16:12:28.034Z,42.80
2019-04-14T16:13:28.418Z,43.50
2019-04-14T16:14:28.029Z,41.70
2019-04-14T16:15:28.020Z,40.80
2019-04-14T16:16:28.064Z,41.80
2019-04-14T16:17:28.007Z,43.10
2019-04-14T16:18:28.008Z,45.80
2019-04-14T16:19:28.005Z,42.30
2019-04-14T16:20:28.005Z,43.00
2019-04-14T16:21:28.027Z,41.00
2019-04-14T16:22:27.983Z,42.40
2019-04-14T16:23:28.019Z,40.70
2019-04-14T16:24:28.003Z,42.10
2019-04-14T16:25:27.967Z,46.10
2019-04-14T16:26:27.968Z,48.10
2019-04-14T16:27:27.995Z,41.80
2019-04-14T16:28:27.957Z,41.50
2019-04-14T16:29:27.992Z,42.90
2019-04-14T16:30:27.960Z,43.00
2019-04-14T16:31:27.938Z,43.50
2019-04-14T16:32:27.932Z,44.10
2019-04-14T16:33:27.933Z,40.10
2019-04-14T16:34:27.929Z,47.80
2019-04-14T16:35:27.951Z,42.30
2019-04-14T16:36:28.091Z,41.30
2019-04-14T16:37:27.901Z,43.50
2019-04-14T16:38:27.940Z,44.50
2019-04-14T16:39:27.916Z,47.10
2019-04-14T16:40:27.891Z,40.00
2019-04-14T16:41:27.887Z,40.70
2019-04-14T16:42:27.884Z,44.70
2019-04-14T16:43:27.879Z,48.20
2019-04-14T16:44:27.907Z,43.50
2019-04-14T16:45:27.873Z,42.80
2019-04-14T16:46:27.864Z,43.50
2019-04-14T16:47:27.858Z,40.90
2019-04-14T16:48:27.846Z,43.90
2019-04-14T16:49:27.885Z,43.00
2019-04-14T16:50:27.840Z,47.40
2019-04-14T16:51:27.827Z,44.10
2019-04-14T16:52:27.828Z,38.10
2019-04-14T16:53:27.821Z,43.60
2019-04-14T16:54:27.861Z,45.60
2019-04-14T16:55:29.554Z,43.40
2019-04-14T16:56:27.814Z,42.80
2019-04-14T16:57:29.184Z,42.90
2019-04-14T16:58:27.801Z,46.40
2019-04-14T16:59:27.841Z,49.40
2019-04-14T17:00:27.789Z,44.20
2019-04-14T17:01:27.785Z,40.90
2019-04-14T17:02:27.773Z,44.50
2019-04-14T17:03:27.823Z,45.20
2019-04-14T17:04:27.790Z,45.50
2019-04-14T17:05:27.761Z,43.70
2019-04-14T17:06:27.766Z,44.00
2019-04-14T17:07:27.751Z,46.30
2019-04-14T17:08:27.786Z,44.50
2019-04-14T17:09:27.778Z,40.70
2019-04-14T17:10:27.733Z,48.30
2019-04-14T17:11:27.730Z,42.70
2019-04-14T17:12:27.722Z,45.30
2019-04-14T17:13:27.734Z,46.80
2019-04-14T17:14:27.753Z,41.30
2019-04-14T17:15:27.742Z,50.70
2019-04-14T17:16:27.701Z,41.60
2019-04-14T17:17:27.722Z,41.00
2019-04-14T17:18:27.696Z,40.50
2019-04-14T17:19:27.708Z,50.20
2019-04-14T17:20:27.677Z,48.10
2019-04-14T17:21:27.709Z,46.50
2019-04-14T17:22:27.665Z,46.20
2019-04-14T17:23:27.668Z,41.80
2019-04-14T17:24:27.661Z,46.40
2019-04-14T17:25:27.704Z,46.90
2019-04-14T17:26:27.730Z,47.40
2019-04-14T17:27:27.719Z,44.90
2019-04-14T17:28:27.660Z,42.90
2019-04-14T17:29:27.634Z,46.00
2019-04-14T17:30:27.637Z,47.70
2019-04-14T17:31:27.623Z,47.30
2019-04-14T17:32:27.783Z,44.80
2019-04-14T17:33:27.901Z,44.00
2019-04-14T17:34:29.682Z,47.00
2019-04-14T17:35:29.727Z,46.50
2019-04-14T17:36:28.718Z,46.00
2019-04-14T17:37:28.404Z,47.50
2019-04-14T17:38:28.354Z,47.00
2019-04-14T17:39:31.618Z,51.70
2019-04-14T17:40:27.910Z,51.00
2019-04-14T17:41:27.577Z,45.70
2019-04-14T17:42:27.599Z,47.90
2019-04-14T17:43:27.564Z,49.30
2019-04-14T17:44:27.552Z,47.10
2019-04-14T17:45:27.580Z,51.70
2019-04-14T17:46:27.577Z,58.20
2019-04-14T17:47:27.544Z,54.60
2019-04-14T17:48:27.533Z,51.60
2019-04-14T17:49:27.530Z,54.80
2019-04-14T17:50:39.750Z,61.20
2019-04-14T17:51:27.562Z,54.90
2019-04-14T17:52:27.535Z,58.10
2019-04-14T17:53:27.511Z,75.10
2019-04-14T17:54:29.764Z,82.90
2019-04-14T17:55:27.553Z,74.40
2019-04-14T17:56:27.525Z,75.90
2019-04-14T17:57:27.526Z,77.20
2019-04-14T17:58:27.493Z,65.90
2019-04-14T17:59:27.480Z,70.30
2019-04-14T18:00:27.484Z,72.40
2019-04-14T18:01:27.503Z,81.30
2019-04-14T18:02:27.462Z,70.70
2019-04-14T18:03:27.460Z,77.90
2019-04-14T18:04:27.456Z,74.20
2019-04-14T18:05:27.450Z,87.40
2019-04-14T18:06:29.667Z,88.60
2019-04-14T18:07:27.630Z,87.60
2019-04-14T18:08:27.427Z,84.90
2019-04-14T18:09:28.966Z,93.50
2019-04-14T18:10:27.424Z,109.00
2019-04-14T18:11:27.447Z,99.40
2019-04-14T18:12:27.405Z,103.70
2019-04-14T18:13:27.412Z,89.50
2019-04-14T18:14:27.391Z,87.90
2019-04-14T18:15:27.431Z,93.10
2019-04-14T18:16:28.244Z,97.20
2019-04-14T18:17:27.421Z,108.20
2019-04-14T18:18:27.378Z,95.70
2019-04-14T18:19:27.376Z,118.80
2019-04-14T18:20:27.368Z,96.90
2019-04-14T18:21:27.384Z,112.70
2019-04-14T18:22:27.361Z,100.80
2019-04-14T18:23:27.383Z,99.40
2019-04-14T18:24:27.421Z,103.70
2019-04-14T18:25:27.363Z,118.30
2019-04-14T18:26:27.366Z,102.60
2019-04-14T18:27:27.318Z,117.10
2019-04-14T18:28:27.318Z,147.40
2019-04-14T18:29:27.360Z,128.20
2019-04-14T18:30:27.318Z,137.80
2019-04-14T18:31:28.733Z,131.70
2019-04-14T18:32:27.307Z,114.30
2019-04-14T18:33:27.306Z,149.20
2019-04-14T18:34:27.294Z,147.60
2019-04-14T18:35:27.321Z,116.40
2019-04-14T18:36:27.281Z,109.30
2019-04-14T18:37:27.323Z,111.20
2019-04-14T18:38:27.321Z,133.20
2019-04-14T18:39:27.271Z,117.60
2019-04-14T18:40:27.268Z,142.60
2019-04-14T18:41:27.253Z,134.60
2019-04-14T18:42:27.278Z,101.40
2019-04-14T18:43:27.244Z,121.40
2019-04-14T18:44:27.239Z,100.50
2019-04-14T18:45:27.244Z,134.20
2019-04-14T18:46:27.226Z,125.10
2019-04-14T18:47:27.271Z,123.60
2019-04-14T18:48:27.214Z,138.60
2019-04-14T18:49:27.224Z,136.50
2019-04-14T18:50:27.212Z,160.80
2019-04-14T18:51:27.207Z,145.70
2019-04-14T18:52:27.252Z,115.30
2019-04-14T18:53:27.233Z,122.90
2019-04-14T18:54:27.199Z,110.90
2019-04-14T18:55:27.178Z,123.50
2019-04-14T18:56:27.178Z,120.40
2019-04-14T18:57:27.183Z,129.70
2019-04-14T18:58:27.204Z,116.80
2019-04-14T18:59:27.274Z,147.80
2019-04-14T19:00:27.161Z,124.50
2019-04-14T19:01:27.149Z,107.60
2019-04-14T19:02:27.194Z,136.20
2019-04-14T19:03:27.178Z,209.90
2019-04-14T19:04:27.136Z,262.40
2019-04-14T19:05:27.145Z,153.90
2019-04-14T19:06:27.130Z,244.80
2019-04-14T19:07:27.138Z,293.30
2019-04-14T19:08:27.154Z,258.70
2019-04-14T19:09:27.110Z,153.50
2019-04-14T19:10:27.110Z,158.20
2019-04-14T19:11:27.109Z,230.80
2019-04-14T19:12:27.133Z,273.40
2019-04-14T19:13:27.095Z,257.70
2019-04-14T19:14:27.122Z,374.80
2019-04-14T19:15:27.076Z,246.20
2019-04-14T19:16:38.698Z,224.70
2019-04-14T19:17:27.077Z,242.10
2019-04-14T19:18:27.112Z,310.60
2019-04-14T19:19:27.221Z,291.70
2019-04-14T19:20:27.072Z,370.30
2019-04-14T19:21:27.053Z,212.30
2019-04-14T19:22:27.045Z,325.80
2019-04-14T19:23:27.089Z,322.30
2019-04-14T19:24:27.038Z,173.00
2019-04-14T19:25:27.037Z,267.00
2019-04-14T19:26:27.065Z,315.70
2019-04-14T19:27:27.025Z,304.10
2019-04-14T19:28:27.021Z,345.80
2019-04-14T19:29:27.852Z,348.60
2019-04-14T19:30:27.019Z,241.60
2019-04-14T19:31:27.015Z,272.70
2019-04-14T19:32:27.039Z,351.20
2019-04-14T19:33:26.997Z,242.60
2019-04-14T19:34:26.991Z,262.30
2019-04-14T19:35:27.061Z,245.20
2019-04-14T19:36:26.979Z,281.00
2019-04-14T19:37:26.972Z,345.10
2019-04-14T19:38:29.956Z,374.40
2019-04-14T19:39:27.036Z,277.60
2019-04-14T19:40:26.966Z,206.60
2019-04-14T19:41:26.961Z,197.20
2019-04-14T19:42:26.952Z,271.00
2019-04-14T19:43:26.952Z,283.70
2019-04-14T19:44:26.982Z,235.70
2019-04-14T19:45:26.973Z,279.10
2019-04-14T19:46:26.935Z,327.50
2019-04-14T19:47:26.974Z,217.30
2019-04-14T19:48:26.926Z,240.70
2019-04-14T19:49:26.911Z,200.70
2019-04-14T19:50:26.914Z,206.40
2019-04-14T19:51:26.915Z,227.50
2019-04-14T19:52:26.954Z,286.40
2019-04-14T19:53:26.897Z,273.30
2019-04-14T19:54:26.927Z,243.30
2019-04-14T19:55:26.896Z,260.00
2019-04-14T19:56:26.881Z,218.40
2019-04-14T19:57:26.883Z,228.00
2019-04-14T19:58:26.909Z,275.90
2019-04-14T19:59:26.868Z,218.00
2019-04-14T20:00:26.861Z,335.80
2019-04-14T20:01:26.862Z,307.40
2019-04-14T20:02:26.887Z,328.90
2019-04-14T20:03:26.848Z,308.30
2019-04-14T20:04:26.885Z,285.60
2019-04-14T20:05:26.844Z,365.70
2019-04-14T20:06:26.836Z,377.70
2019-04-14T20:07:47.840Z,322.80
2019-04-14T20:08:26.826Z,347.50
2019-04-14T20:09:26.858Z,356.10
2019-04-14T20:10:26.873Z,325.70
2019-04-14T20:11:26.812Z,408.60
2019-04-14T20:12:26.809Z,312.20
2019-04-14T20:13:26.806Z,311.60
2019-04-14T20:14:26.827Z,331.50
2019-04-14T20:15:27.741Z,190.70
2019-04-14T20:16:26.801Z,235.20
2019-04-14T20:17:26.785Z,243.10
2019-04-14T20:18:26.774Z,305.30
2019-04-14T20:19:26.803Z,254.10
2019-04-14T20:20:26.904Z,319.50
2019-04-14T20:21:26.760Z,224.50
2019-04-14T20:22:26.806Z,267.60
2019-04-14T20:23:26.775Z,269.50
2019-04-14T20:24:26.753Z,218.20
2019-04-14T20:25:33.715Z,263.00
2019-04-14T20:26:26.736Z,213.40
2019-04-14T20:27:26.780Z,243.00
2019-04-14T20:28:26.730Z,273.80
2019-04-14T20:29:26.724Z,240.90
2019-04-14T20:30:26.769Z,227.30
2019-04-14T20:31:26.717Z,253.00
2019-04-14T20:32:26.716Z,264.20
2019-04-14T20:33:26.760Z,230.20
2019-04-14T20:34:26.696Z,247.30
2019-04-14T20:35:26.692Z,287.20
2019-04-14T20:36:26.731Z,305.80
2019-04-14T20:37:26.678Z,278.00
2019-04-14T20:38:26.681Z,273.10
2019-04-14T20:39:26.668Z,310.00
2019-04-14T20:40:26.673Z,267.90
2019-04-14T20:41:26.657Z,307.80
2019-04-14T20:42:26.690Z,346.00
2019-04-14T20:43:26.652Z,328.70
2019-04-14T20:44:26.647Z,277.80
2019-04-14T20:45:26.639Z,383.60
2019-04-14T20:46:26.639Z,324.50
2019-04-14T20:47:26.662Z,323.30
2019-04-14T20:48:26.676Z,382.70
2019-04-14T20:49:26.623Z,321.80
2019-04-14T20:50:26.665Z,300.20
2019-04-14T20:51:26.615Z,359.40
2019-04-14T20:52:26.610Z,458.20
2019-04-14T20:53:26.624Z,374.90
2019-04-14T20:54:26.632Z,300.80
2019-04-14T20:55:26.590Z,368.90
2019-04-14T20:56:26.586Z,279.20
2019-04-14T20:57:26.628Z,234.40
2019-04-14T20:58:26.574Z,419.20
2019-04-14T20:59:26.566Z,325.40
2019-04-14T21:00:26.597Z,329.90
2019-04-14T21:01:26.554Z,392.60
2019-04-14T21:02:26.552Z,347.70
2019-04-14T21:03:26.560Z,350.20
2019-04-14T21:04:26.546Z,369.80
2019-04-14T21:05:26.575Z,310.50
2019-04-14T21:06:26.528Z,350.80
2019-04-14T21:07:26.537Z,312.00
2019-04-14T21:08:26.520Z,347.70
2019-04-14T21:09:26.522Z,341.10
2019-04-14T21:10:26.529Z,369.00
2019-04-14T21:11:26.535Z,352.10
2019-04-14T21:12:26.530Z,295.50
2019-04-14T21:13:26.502Z,276.50
2019-04-14T21:14:26.489Z,297.10
2019-04-14T21:15:26.486Z,420.60
2019-04-14T21:16:26.490Z,323.00
2019-04-14T21:17:26.528Z,419.80
2019-04-14T21:18:26.470Z,354.10
2019-04-14T21:19:26.469Z,428.20
2019-04-14T21:20:26.462Z,307.50
2019-04-14T21:21:26.539Z,341.00
2019-04-14T21:22:26.486Z,381.30
2019-04-14T21:23:26.444Z,378.60
2019-04-14T21:24:26.442Z,476.00
2019-04-14T21:25:26.438Z,505.60
2019-04-14T21:26:26.584Z,493.30
2019-04-14T21:27:26.483Z,549.70
2019-04-14T21:28:26.421Z,426.20
2019-04-14T21:29:26.414Z,319.30
2019-04-14T21:30:26.410Z,540.90
2019-04-14T21:31:26.402Z,323.80
2019-04-14T21:32:26.439Z,330.00
2019-04-14T21:33:28.266Z,321.70
2019-04-14T21:34:26.385Z,368.90
2019-04-14T21:35:26.384Z,329.00
2019-04-14T21:36:26.407Z,386.80
2019-04-14T21:37:26.380Z,434.80
2019-04-14T21:38:26.409Z,433.00
2019-04-14T21:39:26.356Z,419.30
2019-04-14T21:40:26.358Z,400.70
2019-04-14T21:41:26.391Z,381.90
2019-04-14T21:42:26.349Z,294.70
2019-04-14T21:43:26.345Z,351.70
2019-04-14T21:44:26.355Z,325.20
2019-04-14T21:45:26.358Z,298.40
2019-04-14T21:46:26.365Z,394.00
2019-04-14T21:47:26.340Z,691.60
2019-04-14T21:48:26.317Z,602.10
2019-04-14T21:49:26.318Z,455.20
2019-04-14T21:50:26.300Z,527.20
2019-04-14T21:51:26.333Z,391.30
2019-04-14T21:52:26.335Z,399.20
2019-04-14T21:53:26.292Z,421.70
2019-04-14T21:54:26.305Z,363.30
2019-04-14T21:55:26.283Z,332.20
2019-04-14T21:56:26.309Z,494.50
2019-04-14T21:57:26.277Z,295.00
2019-04-14T21:58:26.300Z,307.80
2019-04-14T21:59:26.267Z,350.90
2019-04-14T22:00:26.253Z,391.80
2019-04-14T22:01:26.248Z,318.20
2019-04-14T22:02:26.273Z,517.60
2019-04-14T22:03:26.269Z,396.70
2019-04-14T22:04:26.272Z,366.40
2019-04-14T22:05:26.225Z,317.40
2019-04-14T22:06:26.224Z,407.10
2019-04-14T22:07:26.218Z,544.00
2019-04-14T22:08:26.215Z,359.40
2019-04-14T22:09:26.244Z,358.60
2019-04-14T22:10:26.196Z,315.60
2019-04-14T22:11:26.198Z,377.70
2019-04-14T22:12:26.263Z,369.30
2019-04-14T22:13:26.188Z,311.70
2019-04-14T22:14:26.181Z,397.30
2019-04-14T22:15:26.177Z,359.20
2019-04-14T22:16:26.178Z,294.90
2019-04-14T22:17:26.214Z,343.50
2019-04-14T22:18:26.194Z,275.00
2019-04-14T22:19:26.156Z,307.60
2019-04-14T22:20:26.160Z,303.80
2019-04-14T22:21:26.185Z,296.20
2019-04-14T22:22:26.176Z,338.30
2019-04-14T22:23:26.136Z,348.50
2019-04-14T22:24:26.194Z,315.40
2019-04-14T22:25:26.124Z,339.90
2019-04-14T22:26:26.611Z,322.00
2019-04-14T22:27:26.151Z,300.60
2019-04-14T22:28:26.115Z,396.00
2019-04-14T22:29:26.122Z,296.40
2019-04-14T22:30:26.104Z,373.20
2019-04-14T22:31:26.113Z,300.70
2019-04-14T22:32:26.131Z,257.20
2019-04-14T22:33:26.090Z,336.50
2019-04-14T22:34:26.083Z,323.00
2019-04-14T22:35:26.074Z,384.10
2019-04-14T22:36:26.078Z,381.90
2019-04-14T22:37:26.086Z,329.70
2019-04-14T22:38:26.109Z,348.50
2019-04-14T22:39:26.102Z,312.10
2019-04-14T22:40:26.050Z,311.60
2019-04-14T22:41:26.043Z,371.10
2019-04-14T22:42:26.040Z,396.80
2019-04-14T22:43:26.070Z,564.90
2019-04-14T22:44:26.029Z,547.10
2019-04-14T22:45:26.064Z,460.00
2019-04-14T22:46:26.042Z,318.70
2019-04-14T22:47:26.018Z,402.30
2019-04-14T22:48:26.003Z,289.50
2019-04-14T22:49:26.005Z,371.90
2019-04-14T22:50:26.178Z,426.30
2019-04-14T22:51:26.860Z,347.50
2019-04-14T22:52:25.991Z,375.50
2019-04-14T22:53:26.012Z,341.20
2019-04-14T22:54:25.988Z,366.80
2019-04-14T22:55:25.972Z,350.20
2019-04-14T22:56:38.359Z,372.90
2019-04-14T22:57:25.999Z,354.90
2019-04-14T22:58:25.996Z,355.30
2019-04-14T22:59:25.958Z,483.00
2019-04-14T23:00:25.955Z,392.30
2019-04-14T23:01:25.956Z,380.80
2019-04-14T23:02:25.935Z,380.10
2019-04-14T23:03:25.967Z,393.80
2019-04-14T23:04:25.930Z,479.00
2019-04-14T23:05:25.930Z,499.50
2019-04-14T23:06:25.921Z,338.20
2019-04-14T23:07:25.915Z,328.70
2019-04-14T23:08:25.966Z,309.60
2019-04-14T23:09:25.903Z,314.50
2019-04-14T23:10:25.903Z,364.30
2019-04-14T23:11:25.890Z,513.70
2019-04-14T23:12:25.890Z,447.70
2019-04-14T23:13:25.918Z,398.10
2019-04-14T23:14:25.887Z,517.50
2019-04-14T23:15:25.867Z,532.20
2019-04-14T23:16:25.873Z,496.30
2019-04-14T23:17:25.853Z,487.50
2019-04-14T23:18:25.893Z,484.60
2019-04-14T23:19:25.878Z,407.30
2019-04-14T23:20:25.847Z,506.90
2019-04-14T23:21:25.838Z,460.70
2019-04-14T23:22:25.834Z,458.00
2019-04-14T23:23:25.826Z,409.50
2019-04-14T23:24:25.863Z,441.60
2019-04-14T23:25:25.823Z,326.60
2019-04-14T23:26:25.864Z,344.10
2019-04-14T23:27:25.817Z,367.30
2019-04-14T23:28:25.837Z,292.20
2019-04-14T23:29:25.811Z,307.20
2019-04-14T23:30:25.794Z,401.70
2019-04-14T23:31:25.794Z,337.20
2019-04-14T23:32:25.815Z,302.60
2019-04-14T23:33:25.778Z,307.90
2019-04-14T23:34:25.779Z,283.60
2019-04-14T23:35:25.777Z,332.70
2019-04-14T23:36:25.796Z,319.50
2019-04-14T23:37:25.758Z,358.20
2019-04-14T23:38:25.766Z,333.90
2019-04-14T23:39:25.810Z,291.70
2019-04-14T23:40:25.752Z,329.20
2019-04-14T23:41:25.739Z,243.00
2019-04-14T23:42:25.774Z,349.30
2019-04-14T23:43:25.725Z,298.60
2019-04-14T23:44:25.770Z,293.00
2019-04-14T23:45:25.733Z,344.50
2019-04-14T23:46:25.713Z,366.80
2019-04-14T23:47:25.710Z,322.00
2019-04-14T23:48:25.757Z,373.40
2019-04-14T23:49:25.748Z,375.00
2019-04-14T23:50:25.693Z,343.70
2019-04-14T23:51:25.687Z,351.70
2019-04-14T23:52:25.681Z,334.90
2019-04-14T23:53:25.679Z,382.90
2019-04-14T23:54:25.719Z,360.50
2019-04-14T23:55:25.660Z,370.90
2019-04-14T23:56:25.697Z,386.20
2019-04-14T23:57:25.658Z,346.60
2019-04-14T23:58:25.679Z,367.80
2019-04-14T23:59:25.645Z,477.70
